weather station
Area: 7197 km2
The highest point: Čupec (819 m.s.l.)
Total stations: 39
Stations online: 35
Stations offline: 4
Current weather
11°C

Meteorological map - weather stations in Jihomoravský

. The meteorological maps show weather information from WARIO weather stations

Weather stations Jihomoravský

 UpdatesNameStatusTemperatureHumidityWind speedWind direction
17.10.2018 21:25Boskovice8.8 °C84.5 %0.7 m/s N
17.10.2018 21:24Brno - Vinohrady14.7 °C68.8 %1.3 m/s E
17.10.2018 21:24Brno - Komín9.2 °C89.6 %1.2 m/s NE
17.10.2018 21:24Brno-Kníničky7.8 °C89.6 %0.0 m/s E
17.10.2018 21:24Býkovice10.3 °C87.9 %0.0 m/s SW
17.10.2018 21:24Bítov7.4 °C95.1 %0.0 m/s N
17.10.2018 21:24Drnholec13.5 °C71.7 %2.3 m/s N
16.10.2018 05:38Lelekovice11.7 °C54.8 %2.3 m/s E
17.10.2018 21:24Letonice13.0 °C85.8 %1.5 m/s N
17.10.2018 21:24Hodonín16.8 °C27.5 %0.0 m/s NE
17.10.2018 21:25Brno9.9 °C83.6 %0.7 m/s SE
17.10.2018 21:25Moravany11.7 °C92.6 %0.7 m/s SW
4.10.2018 18:58Pasohlávky11.0 °C62.3 %0.0 m/s SW
17.10.2018 21:24Lesní Hluboké 11.1 °C82.0 %0.0 m/s SE
25.8.2018 05:59Vlasatice17.3 °C100.0 %2.7 m/s SW
17.10.2018 21:24Višňové10.1 °C84.6 %0.0 m/s W
17.10.2018 21:24Vranov11.0 °C82.3 %0.6 m/s NW
17.10.2018 21:24Dolní Dubňany7.9 °C93.3 %0.7 m/s SW
17.10.2018 21:24Bzenec14.8 °C75.8 %0.0 m/s E
17.10.2018 21:25Svatobořice13.9 °C73.5 %0.6 m/s SW
17.10.2018 21:25Moravské Bránice9.8 °C90.3 %0.0 m/s NW
17.10.2018 21:25Pohořelice10.0 °C86.5 %1.3 m/s W
17.10.2018 21:25Brno - Jih11.6 °C71.3 %1.2 m/s E
17.10.2018 21:25Rousínov12.8 °C73.2 %0.9 m/s SW
17.10.2018 21:24Senorady6.6 °C92.4 %0.0 m/s W
17.10.2018 21:24Šerkovice7.9 °C98.5 %0.0 m/s NW
17.10.2018 21:25Skalice u Znojma10.1 °C92.0 %0.0 m/s SE
17.10.2018 21:24Šlapanice13.0 °C65.0 %0.0 m/s NE
17.10.2018 21:25Kuřim8.6 °C88.9 %0.0 m/s E
17.10.2018 21:24Strážnice15.3 °C69.5 %0.0 m/s SE
17.10.2018 21:24Strážnice GUMEX15.0 °C63.2 %1.8 m/s E
17.10.2018 21:25Němčičky12.0 °C100.0 %0.0 m/s NW
17.10.2018 21:25Valtice13.4 °C85.7 %0.0 m/s W
17.10.2018 21:25Velatice12.5 °C66.3 %1.0 m/s E
17.10.2018 21:24Veselí nad Moravou14.3 °C69.9 %0.0 m/s N
17.10.2018 21:24Lipov - Vinařství a penzion Kostelanský16.5 °C48.2 %2.1 m/s SE
17.10.2018 21:24Vrbovec9.0 °C83.9 %0.0 m/s NE
17.10.2018 12:24Terezín18.7 °C48.8 %2.1 m/s S
17.10.2018 21:25Brno - Královo Pole9.5 °C100.0 %0.0 m/s W
Email notifications
Enter your email address to subscribe to notifications about news at warioweather.com. Your email address will not be used for any purpose other than sending these emails and will not be provided to any third party. The subscription can be ended at any time.
All data are only indicative. The portal administrator has no responsibility for potentially incorrect data and related consequences. Publishing or further sharing of content from www.warioweather.com is only allowed with written consent from WANET s.r.o.